Time;durP1;ratioP1;P1;durP2;ratioP2;P2;SDS_P1;SDS_P2;PMS_P1;PMS_P2;Temp;Humidity;BMP_temperature;BMP_pressure;BME280_temperature;BME280_humidity;BME280_pressure;Samples;Min_cycle;Max_cycle;Signal;HPM_P1;HPM_P2
2022/08/21 00:01:23;;;;;;;2.28;2.08;;;16.50;99.90;;;;;;5009557;28;20037;-77
2022/08/21 00:03:50;;;;;;;2.42;2.00;;;16.50;99.90;;;;;;5011511;28;20041;-77
2022/08/21 00:06:15;;;;;;;3.60;2.50;;;16.50;99.90;;;;;;5007389;28;20046;-77
2022/08/21 00:08:42;;;;;;;4.00;2.58;;;16.50;99.90;;;;;;5005859;28;20041;-76
2022/08/21 00:11:08;;;;;;;2.72;2.30;;;16.40;99.90;;;;;;5006815;28;20522;-77
2022/08/21 00:13:34;;;;;;;4.15;2.42;;;16.50;99.90;;;;;;5010044;28;20030;-77
2022/08/21 00:16:00;;;;;;;3.75;2.13;;;16.50;99.90;;;;;;5008658;28;20579;-77
2022/08/21 00:18:27;;;;;;;3.45;2.30;;;16.50;99.90;;;;;;5005931;28;20049;-77
2022/08/21 00:20:52;;;;;;;2.50;2.30;;;16.50;99.90;;;;;;5008071;28;20069;-77
2022/08/21 00:23:18;;;;;;;2.38;2.17;;;16.40;99.90;;;;;;5004780;28;20069;-77
2022/08/21 00:25:45;;;;;;;3.00;2.70;;;16.50;99.90;;;;;;5002968;28;20062;-77
2022/08/21 00:28:12;;;;;;;2.45;2.25;;;16.40;99.90;;;;;;5005899;28;20103;-77
2022/08/21 00:30:39;;;;;;;3.47;2.20;;;16.40;99.90;;;;;;5002784;28;20192;-77
2022/08/21 00:33:06;;;;;;;3.97;2.70;;;16.40;99.90;;;;;;5002402;28;20165;-76
2022/08/21 00:35:35;;;;;;;3.72;2.70;;;16.30;99.90;;;;;;5005368;28;20040;-77
2022/08/21 00:38:02;;;;;;;3.47;2.53;;;16.30;99.90;;;;;;5003949;28;20042;-77
2022/08/21 00:40:36;;;;;;;5.03;2.70;;;16.30;99.90;;;;;;5003483;28;20038;-77
2022/08/21 00:43:05;;;;;;;2.67;2.47;;;16.30;99.90;;;;;;5007223;28;20281;-77
2022/08/21 00:45:31;;;;;;;;;;;16.30;99.90;;;;;;5005003;28;20064;-77
2022/08/21 00:47:57;;;;;;;3.85;2.50;;;16.30;99.90;;;;;;5005104;28;19971;-77
2022/08/21 00:50:25;;;;;;;2.50;2.30;;;16.30;99.90;;;;;;5004341;28;20033;-77
2022/08/21 00:52:52;;;;;;;3.20;2.90;;;16.30;99.90;;;;;;5003059;28;20026;-77
2022/08/21 00:55:18;;;;;;;2.72;2.40;;;16.30;99.90;;;;;;5005750;28;20116;-77
2022/08/21 00:57:51;;;;;;;3.45;2.88;;;16.30;99.90;;;;;;5004625;28;20038;-77
2022/08/21 01:00:21;;;;;;;2.97;2.67;;;16.30;99.90;;;;;;5001000;28;20038;-81
2022/08/21 01:02:46;;;;;;;3.78;2.50;;;16.30;99.90;;;;;;5002793;28;20066;-81
2022/08/21 01:05:13;;;;;;;3.88;2.95;;;16.20;99.90;;;;;;5001790;28;20034;-79
2022/08/21 01:07:40;;;;;;;3.40;2.97;;;16.20;99.90;;;;;;5005188;28;20056;-79
2022/08/21 01:10:06;;;;;;;3.75;2.60;;;16.20;99.90;;;;;;5007641;28;20274;-81
2022/08/21 01:12:33;;;;;;;3.50;2.83;;;16.20;99.90;;;;;;5004610;28;20021;-80
2022/08/21 01:15:01;;;;;;;3.92;2.88;;;16.10;99.90;;;;;;5001690;28;20041;-79
2022/08/21 01:17:27;;;;;;;2.88;2.58;;;16.10;99.90;;;;;;5004343;28;20041;-81
2022/08/21 01:19:57;;;;;;;4.63;2.83;;;16.00;99.90;;;;;;5002719;28;20052;-80
2022/08/21 01:22:22;;;;;;;3.00;2.70;;;16.00;99.90;;;;;;5023090;28;20041;-81
2022/08/21 01:24:49;;;;;;;5.03;3.03;;;15.90;99.90;;;;;;5001467;28;20698;-81
2022/08/21 01:27:15;;;;;;;2.92;2.67;;;15.90;99.90;;;;;;4999650;28;20042;-80
2022/08/21 01:30:09;;;;;;;3.35;3.05;;;15.80;99.90;;;;;;5005369;28;20038;-81
2022/08/21 01:32:35;;;;;;;3.20;2.90;;;15.80;99.90;;;;;;5005113;28;20041;-79
2022/08/21 01:35:01;;;;;;;3.20;2.90;;;15.80;99.90;;;;;;5002826;28;20038;-81
2022/08/21 01:37:26;;;;;;;3.30;2.83;;;15.80;99.90;;;;;;5005515;28;20045;-81
2022/08/21 01:39:53;;;;;;;4.07;2.63;;;15.80;99.90;;;;;;5004083;28;20125;-81
2022/08/21 01:42:18;;;;;;;2.80;2.50;;;15.70;99.90;;;;;;5006370;28;20053;-82
2022/08/21 01:44:44;;;;;;;4.20;2.67;;;15.70;99.90;;;;;;5003401;28;20038;-80
2022/08/21 01:47:13;;;;;;;3.10;2.80;;;15.70;99.90;;;;;;5003005;28;20045;-81
2022/08/21 01:49:39;;;;;;;3.95;2.75;;;15.80;99.90;;;;;;5003473;28;20033;-79
2022/08/21 01:52:05;;;;;;;3.00;2.70;;;15.80;99.90;;;;;;5002189;28;20129;-81
2022/08/21 01:54:32;;;;;;;2.90;2.70;;;15.80;99.90;;;;;;5010287;28;20085;-81
2022/08/21 01:56:59;;;;;;;3.75;2.67;;;15.80;99.90;;;;;;5000481;28;20038;-80
2022/08/21 01:59:25;;;;;;;11.77;3.10;;;15.80;99.90;;;;;;5003375;28;20034;-80
2022/08/21 02:01:52;;;;;;;2.85;2.50;;;15.80;99.90;;;;;;5001501;28;20042;-79
2022/08/21 02:04:17;;;;;;;2.72;2.53;;;15.70;99.90;;;;;;5001762;28;20042;-80
2022/08/21 02:06:43;;;;;;;3.35;2.90;;;15.70;99.90;;;;;;5002302;28;20048;-80
2022/08/21 02:09:11;;;;;;;2.95;2.45;;;15.70;99.90;;;;;;5003921;28;20037;-80
2022/08/21 02:11:40;;;;;;;4.63;2.60;;;15.70;99.90;;;;;;5001704;28;20041;-81
2022/08/21 02:14:14;;;;;;;3.97;2.42;;;15.70;99.90;;;;;;5003915;28;20053;-80
2022/08/21 02:16:41;;;;;;;2.75;2.53;;;15.70;99.90;;;;;;4999268;28;20117;-80
2022/08/21 02:19:08;;;;;;;4.63;2.60;;;15.70;99.90;;;;;;5003681;28;20026;-79
2022/08/21 02:21:33;;;;;;;2.80;2.50;;;15.60;99.90;;;;;;5003958;28;20058;-81
2022/08/21 02:23:59;;;;;;;2.50;2.30;;;15.60;99.90;;;;;;5003239;28;20049;-81
2022/08/21 02:26:25;;;;;;;3.38;2.30;;;15.60;99.90;;;;;;5004460;28;20485;-80
2022/08/21 02:28:50;;;;;;;2.72;2.53;;;15.70;99.90;;;;;;5005809;28;20541;-81
2022/08/21 02:31:16;;;;;;;4.30;2.55;;;15.70;99.90;;;;;;4999513;28;20046;-80
2022/08/21 02:33:42;;;;;;;2.67;2.45;;;15.70;99.90;;;;;;5003081;28;20030;-80
2022/08/21 02:36:09;;;;;;;3.03;2.60;;;15.70;99.90;;;;;;5004564;28;20052;-81
2022/08/21 02:38:38;;;;;;;3.67;2.43;;;15.70;99.90;;;;;;5000637;28;20045;-79
2022/08/21 02:41:07;;;;;;;2.72;2.28;;;15.70;99.90;;;;;;5001673;28;20407;-80
2022/08/21 02:43:33;;;;;;;2.45;2.25;;;15.70;99.90;;;;;;4999947;28;20032;-80
2022/08/21 02:45:59;;;;;;;3.78;3.40;;;15.70;99.90;;;;;;5000862;28;20519;-79
2022/08/21 02:48:29;;;;;;;2.50;2.30;;;15.70;99.90;;;;;;5001963;28;20065;-79
2022/08/21 02:51:03;;;;;;;4.93;2.55;;;15.60;99.90;;;;;;4999991;28;20037;-80
2022/08/21 02:53:30;;;;;;;2.80;2.40;;;15.50;99.90;;;;;;5005653;28;20106;-80
2022/08/21 02:55:59;;;;;;;3.05;2.58;;;15.50;99.90;;;;;;5000447;28;20244;-79
2022/08/21 02:58:27;;;;;;;2.95;2.63;;;15.40;99.90;;;;;;5006996;28;20067;-80
2022/08/21 03:00:53;;;;;;;2.50;2.22;;;15.40;99.90;;;;;;5005077;28;20050;-80
2022/08/21 03:03:20;;;;;;;3.15;2.50;;;15.30;99.90;;;;;;5003837;28;20084;-80
2022/08/21 03:05:47;;;;;;;6.53;2.97;;;15.30;99.90;;;;;;5001945;28;20513;-80
2022/08/21 03:08:14;;;;;;;3.15;2.58;;;15.30;99.90;;;;;;5001472;28;20089;-80
2022/08/21 03:10:43;;;;;;;2.60;2.20;;;15.40;99.90;;;;;;5006353;28;20104;-80
2022/08/21 03:13:10;;;;;;;3.53;2.17;;;15.30;99.90;;;;;;5003437;28;20129;-80
2022/08/21 03:15:36;;;;;;;3.30;2.22;;;15.30;99.90;;;;;;5003839;28;20029;-79
2022/08/21 03:18:03;;;;;;;5.82;2.08;;;15.30;99.90;;;;;;5003436;28;20034;-79
2022/08/21 03:20:30;;;;;;;2.42;2.22;;;15.30;99.90;;;;;;5005022;28;20030;-80
2022/08/21 03:22:56;;;;;;;3.63;2.40;;;15.30;99.90;;;;;;5003196;28;20037;-80
2022/08/21 03:25:24;;;;;;;4.75;2.70;;;15.30;99.90;;;;;;5005319;28;20030;-80
2022/08/21 03:27:50;;;;;;;2.65;2.45;;;15.30;99.90;;;;;;5007525;28;20046;-81
2022/08/21 03:30:19;;;;;;;3.00;2.58;;;15.10;99.90;;;;;;5007756;28;20108;-79
2022/08/21 03:32:46;;;;;;;3.25;2.70;;;15.00;99.90;;;;;;5004498;28;20066;-79
2022/08/21 03:35:12;;;;;;;3.22;2.70;;;14.90;99.90;;;;;;5003929;28;20053;-80
2022/08/21 03:37:38;;;;;;;2.63;2.40;;;14.90;99.90;;;;;;5005262;28;20461;-79
2022/08/21 03:40:06;;;;;;;3.60;2.63;;;14.80;99.90;;;;;;5005818;28;20117;-79
2022/08/21 03:42:31;;;;;;;3.67;2.88;;;14.90;99.90;;;;;;5008537;28;20548;-80
2022/08/21 03:44:57;;;;;;;4.03;3.00;;;14.90;99.90;;;;;;5006028;28;20076;-80
2022/08/21 03:47:22;;;;;;;3.28;2.97;;;15.00;99.90;;;;;;5006886;28;20038;-79
2022/08/21 03:49:48;;;;;;;3.50;3.08;;;15.00;99.90;;;;;;5007764;28;20892;-80
2022/08/21 03:52:15;;;;;;;3.03;2.72;;;15.00;99.90;;;;;;5009798;28;20029;-80
2022/08/21 03:54:40;;;;;;;3.50;2.78;;;15.00;99.90;;;;;;5008348;28;20039;-80
2022/08/21 03:57:06;;;;;;;3.28;2.72;;;14.90;99.90;;;;;;5006893;28;20044;-81
2022/08/21 03:59:32;;;;;;;3.50;3.20;;;14.80;99.90;;;;;;5007868;28;20037;-80
2022/08/21 04:02:00;;;;;;;3.30;2.72;;;14.90;99.90;;;;;;5004585;28;20037;-79
2022/08/21 04:04:27;;;;;;;3.78;2.70;;;14.90;99.90;;;;;;5005606;28;20033;-81
2022/08/21 04:06:53;;;;;;;3.17;2.38;;;14.90;99.90;;;;;;5007781;28;20385;-79
2022/08/21 04:09:19;;;;;;;5.45;2.35;;;14.80;99.90;;;;;;5009713;28;20408;-79
2022/08/21 04:11:45;;;;;;;26.25;3.70;;;14.80;99.90;;;;;;5005550;28;20045;-79
2022/08/21 04:14:11;;;;;;;2.38;1.60;;;14.50;99.90;;;;;;5004278;28;20079;-79
2022/08/21 04:16:37;;;;;;;1.85;1.75;;;14.20;99.90;;;;;;5008174;28;20120;-80
2022/08/21 04:19:03;;;;;;;2.17;1.60;;;14.20;99.90;;;;;;5005397;28;20064;-80
2022/08/21 04:21:30;;;;;;;2.33;2.05;;;14.30;99.90;;;;;;5007018;28;20081;-80
2022/08/21 04:23:55;;;;;;;3.38;2.85;;;14.40;99.90;;;;;;5003103;28;20076;-78
2022/08/21 04:26:22;;;;;;;3.08;2.30;;;14.50;99.90;;;;;;5007809;28;20042;-80
2022/08/21 04:28:47;;;;;;;2.00;1.60;;;14.50;99.90;;;;;;5005488;28;20040;-80
2022/08/21 04:31:13;;;;;;;2.05;1.88;;;14.60;99.90;;;;;;5005348;28;20034;-80
2022/08/21 04:33:38;;;;;;;3.30;2.58;;;14.60;99.90;;;;;;5003076;28;20049;-80
2022/08/21 04:36:06;;;;;;;2.78;2.50;;;14.60;99.90;;;;;;5008140;28;20042;-80
2022/08/21 04:38:32;;;;;;;2.35;2.05;;;14.70;99.90;;;;;;5005789;28;20113;-79
2022/08/21 04:40:58;;;;;;;4.00;1.83;;;14.70;99.90;;;;;;5006770;28;20041;-81
2022/08/21 04:43:24;;;;;;;4.75;1.85;;;14.70;99.90;;;;;;5002026;28;20093;-79
2022/08/21 04:45:51;;;;;;;1.95;1.85;;;14.60;99.90;;;;;;5005536;28;20045;-80
2022/08/21 04:48:19;;;;;;;2.55;2.20;;;14.60;99.90;;;;;;5006678;28;20046;-80
2022/08/21 04:51:08;;;;;;;3.95;2.78;;;14.60;99.90;;;;;;5005393;28;20036;-78
2022/08/21 04:53:45;;;;;;;3.20;2.80;;;14.60;99.90;;;;;;5005878;28;20108;-79
2022/08/21 04:56:36;;;;;;;2.60;2.40;;;14.60;99.90;;;;;;5007346;28;20042;-79
2022/08/21 04:59:06;;;;;;;4.07;2.63;;;14.70;99.90;;;;;;5002314;28;20362;-79
2022/08/21 05:01:35;;;;;;;3.58;2.50;;;14.70;99.90;;;;;;5004581;28;20111;-79
2022/08/21 05:04:05;;;;;;;3.20;2.50;;;14.70;99.90;;;;;;5006019;28;20041;-79
2022/08/21 05:06:34;;;;;;;3.58;2.88;;;14.80;99.90;;;;;;5005288;28;20113;-79
2022/08/21 05:09:01;;;;;;;2.78;2.53;;;14.90;99.90;;;;;;5005585;28;20030;-79
2022/08/21 05:11:27;;;;;;;4.35;2.58;;;14.80;99.90;;;;;;5007088;28;20140;-79
2022/08/21 05:13:53;;;;;;;2.80;2.58;;;14.90;99.90;;;;;;5005346;28;20041;-79
2022/08/21 05:16:19;;;;;;;2.95;2.47;;;15.00;99.90;;;;;;5007888;28;20037;-79
2022/08/21 05:18:44;;;;;;;4.03;2.65;;;15.10;99.90;;;;;;5005803;28;20034;-80
2022/08/21 05:21:10;;;;;;;3.80;3.40;;;15.10;99.90;;;;;;5005797;28;20053;-79
2022/08/21 05:23:36;;;;;;;3.10;2.58;;;15.10;99.90;;;;;;5005497;28;20111;-79
2022/08/21 05:26:04;;;;;;;6.13;3.20;;;15.20;99.90;;;;;;5003376;28;20128;-79
2022/08/21 05:28:30;;;;;;;3.65;2.90;;;15.20;99.90;;;;;;5003716;28;20100;-80
2022/08/21 05:30:55;;;;;;;4.38;3.35;;;15.30;99.90;;;;;;5005014;28;20152;-79
2022/08/21 05:33:21;;;;;;;3.88;3.08;;;15.20;99.90;;;;;;5003604;28;20112;-80
2022/08/21 05:35:55;;;;;;;3.60;2.80;;;15.10;99.90;;;;;;5006007;28;20034;-79
2022/08/21 05:38:21;;;;;;;3.63;2.65;;;15.10;99.90;;;;;;5003391;28;20041;-79
2022/08/21 05:40:47;;;;;;;2.80;2.55;;;15.10;99.90;;;;;;5005049;28;20044;-79
2022/08/21 05:43:14;;;;;;;3.50;3.20;;;15.30;99.90;;;;;;5005829;28;20037;-79
2022/08/21 05:45:40;;;;;;;3.15;2.85;;;15.40;99.90;;;;;;5005660;28;20041;-79
2022/08/21 05:48:07;;;;;;;3.28;2.85;;;15.50;99.90;;;;;;5007426;28;20049;-79
2022/08/21 05:50:32;;;;;;;4.28;2.90;;;15.60;99.90;;;;;;5001445;28;20070;-79
2022/08/21 05:52:58;;;;;;;3.50;2.90;;;15.60;99.90;;;;;;5005563;28;20033;-78
2022/08/21 05:55:24;;;;;;;4.03;2.67;;;15.70;99.90;;;;;;5004942;28;20748;-80
2022/08/21 05:57:49;;;;;;;3.55;3.15;;;15.70;99.90;;;;;;5004544;28;20095;-79
2022/08/21 06:00:16;;;;;;;3.10;2.58;;;15.70;99.90;;;;;;5007091;28;20653;-79
2022/08/21 06:02:42;;;;;;;3.58;2.90;;;15.80;99.90;;;;;;5008263;28;20046;-79
2022/08/21 06:05:08;;;;;;;4.65;3.45;;;15.80;99.90;;;;;;5003629;28;20029;-80
2022/08/21 06:07:34;;;;;;;3.55;2.83;;;15.80;99.90;;;;;;5010894;28;20391;-78
2022/08/21 06:09:59;;;;;;;2.80;2.42;;;15.80;99.90;;;;;;5004510;28;20033;-80
2022/08/21 06:12:25;;;;;;;4.47;3.30;;;15.80;99.90;;;;;;5015394;28;20061;-80
2022/08/21 06:14:52;;;;;;;3.92;2.88;;;15.80;99.90;;;;;;5010128;28;20025;-79
2022/08/21 06:17:18;;;;;;;3.70;2.90;;;15.90;99.90;;;;;;5008525;28;20037;-80
2022/08/21 06:19:44;;;;;;;3.00;2.70;;;16.00;99.90;;;;;;5010479;28;20968;-80
2022/08/21 06:22:09;;;;;;;4.22;2.90;;;16.10;99.90;;;;;;5008721;28;20080;-79
2022/08/21 06:24:35;;;;;;;3.30;2.88;;;16.20;99.90;;;;;;5008384;28;20093;-79
2022/08/21 06:27:07;;;;;;;3.47;2.80;;;16.30;99.90;;;;;;5011655;28;20029;-79
2022/08/21 06:29:34;;;;;;;3.50;2.72;;;16.50;99.90;;;;;;5009142;28;20116;-79
2022/08/21 06:31:59;;;;;;;3.63;2.90;;;16.60;99.90;;;;;;5007741;28;20057;-79
2022/08/21 06:34:25;;;;;;;4.20;2.85;;;16.70;99.90;;;;;;5007290;28;20042;-80
2022/08/21 06:36:50;;;;;;;3.70;2.47;;;16.70;99.90;;;;;;5007272;28;20036;-79
2022/08/21 06:39:16;;;;;;;3.38;2.13;;;16.80;99.90;;;;;;5007386;28;20045;-78
2022/08/21 06:41:42;;;;;;;2.53;1.95;;;16.80;99.90;;;;;;5007334;28;20030;-79
2022/08/21 06:44:07;;;;;;;2.45;2.10;;;16.90;99.90;;;;;;5004669;28;20429;-79
2022/08/21 06:46:33;;;;;;;4.00;2.22;;;17.00;99.90;;;;;;5008820;28;20030;-79
2022/08/21 06:48:59;;;;;;;2.10;1.90;;;17.10;99.90;;;;;;5016521;28;20049;-80
2022/08/21 06:51:25;;;;;;;2.55;2.22;;;17.20;99.90;;;;;;5007541;28;20034;-80
2022/08/21 06:53:52;;;;;;;3.55;2.50;;;17.40;99.90;;;;;;5012128;28;20021;-79
2022/08/21 06:56:18;;;;;;;2.90;2.15;;;17.60;99.90;;;;;;5009862;28;20030;-79
2022/08/21 06:58:44;;;;;;;3.15;2.10;;;17.60;99.90;;;;;;5010523;28;20041;-80
2022/08/21 07:01:10;;;;;;;2.53;1.92;;;17.70;99.90;;;;;;5004672;28;20038;-79
2022/08/21 07:03:38;;;;;;;2.78;2.25;;;17.90;99.90;;;;;;5005381;28;20036;-80
2022/08/21 07:06:04;;;;;;;;;;;18.10;99.90;;;;;;5008804;28;20034;-80
2022/08/21 07:08:30;;;;;;;3.05;1.85;;;18.10;99.90;;;;;;5006333;28;20313;-80
2022/08/21 07:10:58;;;;;;;2.42;1.90;;;18.10;99.90;;;;;;5009435;28;20052;-81
2022/08/21 07:13:24;;;;;;;2.25;2.05;;;18.10;99.90;;;;;;5009342;28;20026;-79
2022/08/21 07:15:50;;;;;;;3.17;2.40;;;18.10;99.90;;;;;;5007790;28;20111;-79
2022/08/21 07:18:16;;;;;;;2.40;2.20;;;17.80;99.90;;;;;;5016812;28;20038;-80
2022/08/21 07:20:42;;;;;;;3.28;2.30;;;17.90;99.90;;;;;;5010673;28;20041;-79
2022/08/21 07:23:12;;;;;;;3.03;2.17;;;18.00;99.90;;;;;;5011825;28;20033;-80
2022/08/21 07:25:38;;;;;;;2.80;2.47;;;18.30;99.90;;;;;;5009812;28;20030;-81
2022/08/21 07:28:04;;;;;;;3.75;2.33;;;18.40;99.90;;;;;;5007785;28;20044;-79
2022/08/21 07:30:30;;;;;;;2.65;2.13;;;18.50;99.90;;;;;;5014914;28;20034;-80
2022/08/21 07:32:56;;;;;;;3.17;2.60;;;18.60;99.90;;;;;;5008541;28;20705;-80
2022/08/21 07:35:22;;;;;;;3.38;2.67;;;18.80;99.90;;;;;;5016002;28;20485;-80
2022/08/21 07:37:48;;;;;;;3.30;2.33;;;19.00;99.90;;;;;;5013789;28;20036;-80
2022/08/21 07:40:15;;;;;;;3.60;2.28;;;19.30;99.90;;;;;;5011518;28;20034;-79
2022/08/21 07:42:46;;;;;;;4.53;2.85;;;19.10;99.90;;;;;;5005974;28;20559;-80
2022/08/21 07:45:13;;;;;;;4.60;2.63;;;19.00;99.90;;;;;;5008209;28;20022;-81
2022/08/21 07:47:39;;;;;;;3.47;2.63;;;19.00;99.90;;;;;;5012254;28;20045;-80
2022/08/21 07:50:06;;;;;;;4.05;2.50;;;19.10;99.90;;;;;;5009691;28;20034;-80
2022/08/21 07:52:33;;;;;;;3.10;2.42;;;19.30;99.90;;;;;;5005566;28;20022;-79
2022/08/21 07:54:58;;;;;;;2.55;2.35;;;19.40;99.90;;;;;;5008643;28;20030;-79
2022/08/21 07:57:24;;;;;;;5.57;3.00;;;19.70;99.90;;;;;;5006256;28;20082;-79
2022/08/21 07:59:50;;;;;;;2.90;2.70;;;19.90;99.90;;;;;;5013652;28;20034;-79
2022/08/21 08:02:27;;;;;;;3.50;3.20;;;20.10;99.90;;;;;;5002615;28;20045;-80
2022/08/21 08:04:53;;;;;;;4.27;3.30;;;20.20;99.90;;;;;;5009086;28;20419;-79
2022/08/21 08:07:18;;;;;;;4.10;2.97;;;20.30;99.90;;;;;;5004487;28;20041;-79
2022/08/21 08:09:44;;;;;;;3.72;3.08;;;20.50;99.90;;;;;;5006632;28;20047;-80
2022/08/21 08:12:10;;;;;;;4.45;3.35;;;20.80;99.90;;;;;;5007873;28;20045;-79
2022/08/21 08:14:36;;;;;;;6.30;3.20;;;20.80;99.90;;;;;;5008396;28;20065;-78
2022/08/21 08:17:02;;;;;;;4.22;3.17;;;21.00;99.90;;;;;;5010508;28;20473;-79
2022/08/21 08:19:28;;;;;;;3.70;2.95;;;21.10;99.90;;;;;;5005763;28;20026;-80
2022/08/21 08:21:54;;;;;;;3.47;2.92;;;21.00;99.90;;;;;;5008416;28;20393;-79
2022/08/21 08:24:19;;;;;;;4.75;3.35;;;20.80;99.90;;;;;;5013235;28;20036;-79
2022/08/21 08:26:45;;;;;;;2.78;2.58;;;20.30;99.90;;;;;;5005602;28;20042;-80
2022/08/21 08:29:11;;;;;;;5.25;3.40;;;20.60;99.90;;;;;;5007172;28;20515;-80
2022/08/21 08:31:37;;;;;;;4.00;2.78;;;20.90;99.90;;;;;;5005635;28;20046;-79
2022/08/21 08:34:03;;;;;;;3.70;3.17;;;20.60;99.90;;;;;;5004705;28;20052;-81
2022/08/21 08:36:34;;;;;;;3.88;3.13;;;20.50;99.90;;;;;;5009743;28;20072;-81
2022/08/21 08:39:00;;;;;;;3.63;3.30;;;20.50;99.90;;;;;;5010009;28;20401;-80
2022/08/21 08:41:27;;;;;;;3.92;2.90;;;20.30;99.90;;;;;;5008920;28;20954;-80
2022/08/21 08:43:56;;;;;;;3.58;2.53;;;20.40;99.90;;;;;;5010009;28;20064;-76
2022/08/21 08:46:40;;;;;;;4.13;3.38;;;20.90;99.90;;;;;;5012128;28;20444;-76
2022/08/21 08:49:17;;;;;;;3.97;3.15;;;21.10;99.90;;;;;;5013923;28;20046;-77
2022/08/21 08:52:01;;;;;;;7.10;3.20;;;21.50;99.90;;;;;;5013922;28;20034;-77
2022/08/21 08:54:42;;;;;;;3.95;2.80;;;21.80;99.90;;;;;;5006612;28;20669;-76
2022/08/21 08:57:14;;;;;;;6.15;3.28;;;21.70;99.90;;;;;;5008422;28;20049;-76
2022/08/21 08:59:49;;;;;;;3.47;2.90;;;21.90;99.90;;;;;;5008497;28;20050;-76
2022/08/21 09:02:16;;;;;;;4.10;3.10;;;21.90;99.90;;;;;;5006639;28;20049;-76
2022/08/21 09:04:43;;;;;;;4.82;3.42;;;21.70;99.90;;;;;;5013535;28;20115;-76
2022/08/21 09:07:15;;;;;;;3.78;3.22;;;22.20;99.90;;;;;;5006493;28;20112;-77
2022/08/21 09:10:21;;;;;;;6.78;3.25;;;22.60;99.90;;;;;;5016134;28;20169;-76
2022/08/21 09:13:07;;;;;;;4.80;3.40;;;22.90;99.90;;;;;;5009795;28;20037;-76
2022/08/21 09:15:55;;;;;;;3.90;3.55;;;22.70;99.90;;;;;;5013374;28;20375;-76
2022/08/21 09:18:36;;;;;;;3.58;2.85;;;22.50;99.90;;;;;;5008708;28;20122;-76
2022/08/21 09:21:40;;;;;;;6.72;3.58;;;23.10;99.90;;;;;;5009495;28;20142;-76
2022/08/21 09:24:33;;;;;;;4.38;3.65;;;23.20;94.50;;;;;;5007614;28;20040;-76
2022/08/21 09:27:06;;;;;;;5.03;3.25;;;23.30;92.50;;;;;;5005899;28;20026;-78
2022/08/21 09:29:36;;;;;;;3.35;2.97;;;23.50;91.40;;;;;;5015535;28;20042;-79
2022/08/21 09:32:09;;;;;;;5.38;3.42;;;23.90;95.50;;;;;;5007438;28;20037;-77
2022/08/21 09:34:36;;;;;;;3.10;2.80;;;24.20;92.90;;;;;;5013850;28;20081;-79
2022/08/21 09:37:02;;;;;;;4.85;3.50;;;24.40;91.30;;;;;;5010489;28;20077;-79
2022/08/21 09:39:31;;;;;;;4.95;3.22;;;24.40;85.40;;;;;;5011497;28;20038;-78
2022/08/21 09:41:58;;;;;;;3.15;2.85;;;24.00;87.70;;;;;;5005642;28;20042;-80
2022/08/21 09:44:27;;;;;;;3.90;3.17;;;23.60;79.80;;;;;;5012544;28;20072;-78
2022/08/21 09:46:52;;;;;;;3.38;3.08;;;23.50;86.40;;;;;;5007800;28;20731;-77
2022/08/21 09:49:31;;;;;;;5.57;3.10;;;23.60;93.00;;;;;;5004727;28;20128;-79
2022/08/21 09:51:58;;;;;;;4.70;3.65;;;23.70;81.30;;;;;;5005999;28;20038;-80
2022/08/21 09:54:34;;;;;;;3.42;3.05;;;23.90;79.70;;;;;;5007744;28;20029;-80
2022/08/21 10:00:22;;;;;;;3.70;3.28;;;23.60;75.00;;;;;;5010608;28;20092;-80
2022/08/21 10:02:48;;;;;;;3.33;2.72;;;23.80;82.60;;;;;;5003431;28;20094;-78
2022/08/21 10:05:25;;;;;;;3.15;2.85;;;24.00;72.10;;;;;;5011576;28;20070;-80
2022/08/21 10:07:51;;;;;;;4.40;2.88;;;23.90;75.60;;;;;;5005489;28;20037;-80
2022/08/21 10:10:19;;;;;;;3.50;3.17;;;23.10;77.60;;;;;;5003962;28;20041;-78
2022/08/21 10:12:59;;;;;;;3.92;3.63;;;23.30;86.70;;;;;;5008452;28;20572;-81
2022/08/21 10:15:55;;;;;;;6.63;5.70;;;24.00;80.60;;;;;;5006387;28;20053;-80
2022/08/21 10:18:27;;;;;;;5.70;3.28;;;24.20;79.20;;;;;;5012644;28;20038;-80
2022/08/21 10:20:58;;;;;;;5.57;3.22;;;24.60;81.30;;;;;;5011087;28;20052;-79
2022/08/21 10:23:35;;;;;;;3.63;3.08;;;24.80;75.30;;;;;;5002088;28;20042;-81
2022/08/21 10:26:25;;;;;;;3.47;3.00;;;25.00;63.60;;;;;;5003727;28;20040;-81
2022/08/21 10:29:12;;;;;;;5.35;3.42;;;24.80;64.50;;;;;;5002951;28;20455;-81
2022/08/21 10:32:16;;;;;;;3.60;3.30;;;24.70;66.70;;;;;;5004453;28;20050;-80
2022/08/21 10:35:06;;;;;;;4.35;2.80;;;24.60;61.90;;;;;;5004245;28;20049;-78
2022/08/21 10:37:54;;;;;;;2.90;2.70;;;24.80;67.00;;;;;;5004552;28;20337;-78
2022/08/21 10:40:34;;;;;;;3.83;2.75;;;24.70;65.70;;;;;;5004181;28;20045;-82
2022/08/21 10:43:05;;;;;;;4.72;3.20;;;24.90;66.70;;;;;;5006468;28;20135;-82
2022/08/21 10:45:54;;;;;;;4.05;2.78;;;24.80;63.00;;;;;;5005415;28;20563;-79
2022/08/21 10:48:33;;;;;;;4.53;2.60;;;24.20;65.50;;;;;;5002970;28;20507;-78
2022/08/21 10:51:35;;;;;;;3.33;3.03;;;24.10;62.60;;;;;;5005531;28;20057;-81
2022/08/21 10:54:27;;;;;;;3.65;3.05;;;23.90;57.10;;;;;;5012962;28;20068;-81
2022/08/21 10:57:01;;;;;;;4.47;2.85;;;24.20;64.50;;;;;;5006582;28;20034;-80
2022/08/21 11:00:10;;;;;;;5.45;2.75;;;23.80;65.80;;;;;;5008286;28;20025;-81
2022/08/21 11:02:38;;;;;;;2.88;2.58;;;24.10;59.80;;;;;;4983991;28;20041;-83
2022/08/21 11:05:15;;;;;;;3.00;2.60;;;23.90;57.30;;;;;;5004987;28;20057;-80
2022/08/21 11:07:52;;;;;;;3.57;2.70;;;24.00;61.70;;;;;;5009730;28;20089;-80
2022/08/21 11:10:30;;;;;;;3.30;2.53;;;24.00;58.90;;;;;;5012088;28;20289;-80
2022/08/21 11:13:20;;;;;;;5.30;2.78;;;24.00;58.20;;;;;;5008260;28;20105;-81
2022/08/21 11:15:59;;;;;;;2.70;2.05;;;24.20;57.60;;;;;;4994744;28;20096;-79
2022/08/21 11:18:33;;;;;;;4.47;2.47;;;24.20;54.30;;;;;;5002254;28;20563;-81
2022/08/21 11:21:18;;;;;;;2.58;2.15;;;24.40;56.60;;;;;;5000552;28;20147;-82
2022/08/21 11:23:50;;;;;;;3.58;2.38;;;24.50;63.30;;;;;;5007430;28;20080;-82
2022/08/21 11:26:41;;;;;;;4.18;2.47;;;24.60;55.80;;;;;;5004031;28;21181;-82
2022/08/21 11:29:45;;;;;;;5.78;2.05;;;24.60;57.90;;;;;;5002117;28;20532;-82
2022/08/21 11:32:30;;;;;;;3.47;2.40;;;24.80;53.50;;;;;;4999540;28;20092;-78
2022/08/21 11:35:11;;;;;;;3.10;2.10;;;24.90;55.10;;;;;;5001552;28;20072;-83
2022/08/21 11:37:52;;;;;;;2.88;2.38;;;25.00;51.80;;;;;;5002339;28;20394;-79
2022/08/21 11:40:48;;;;;;;3.17;2.20;;;24.90;48.90;;;;;;5003461;28;20029;-82
2022/08/21 11:43:27;;;;;;;4.65;2.30;;;25.00;52.00;;;;;;5002812;28;21395;-83
2022/08/21 11:45:56;;;;;;;2.72;1.80;;;25.00;54.10;;;;;;5001195;28;20066;-82
2022/08/21 11:48:33;;;;;;;2.58;2.10;;;25.10;52.40;;;;;;5004186;28;20436;-84
2022/08/21 11:51:00;;;;;;;;;;;24.90;50.50;;;;;;5009395;28;20042;-81
2022/08/21 11:53:56;;;;;;;6.20;3.80;;;24.80;52.20;;;;;;5006667;28;20663;-84
2022/08/21 11:56:32;;;;;;;4.22;2.65;;;24.60;50.30;;;;;;5005612;28;20403;-85
2022/08/21 11:59:04;;;;;;;3.03;2.42;;;24.70;50.00;;;;;;5003675;28;21058;-86
2022/08/21 12:01:34;;;;;;;4.53;1.90;;;24.50;54.40;;;;;;5006034;28;20131;-84
2022/08/21 12:04:02;;;;;;;3.20;2.20;;;24.50;56.10;;;;;;5007958;28;20034;-85
2022/08/21 12:06:37;;;;;;;2.88;2.38;;;24.50;56.20;;;;;;5006617;28;20026;-83
2022/08/21 12:09:09;;;;;;;2.35;2.15;;;24.10;52.10;;;;;;5005766;28;20045;-82
2022/08/21 12:11:50;;;;;;;3.03;2.30;;;24.10;52.30;;;;;;5010455;28;20045;-82
2022/08/21 12:14:18;;;;;;;3.50;2.33;;;23.80;51.10;;;;;;5010766;28;20036;-81
2022/08/21 12:16:47;;;;;;;2.67;2.30;;;23.80;53.80;;;;;;5003522;28;20452;-82
2022/08/21 12:19:27;;;;;;;2.58;2.30;;;23.80;55.70;;;;;;5005474;28;20056;-82
2022/08/21 12:22:04;;;;;;;3.13;2.58;;;23.90;52.70;;;;;;5005024;28;20168;-80
2022/08/21 12:24:38;;;;;;;5.68;2.40;;;23.80;52.90;;;;;;5006313;28;20030;-82
2022/08/21 12:27:43;;;;;;;4.70;2.33;;;23.90;53.60;;;;;;5003202;28;21161;-81
2022/08/21 12:30:22;;;;;;;3.60;2.15;;;23.90;53.30;;;;;;5005176;28;20479;-82
2022/08/21 12:32:54;;;;;;;3.08;1.92;;;23.70;52.70;;;;;;5006613;28;20099;-80
2022/08/21 12:35:38;;;;;;;2.75;2.00;;;23.80;53.80;;;;;;5004829;28;20026;-82
2022/08/21 12:38:18;;;;;;;3.13;2.08;;;23.90;54.10;;;;;;5006129;28;20097;-82
2022/08/21 12:40:53;;;;;;;3.40;2.20;;;23.80;54.30;;;;;;5009356;28;20030;-82
2022/08/21 12:43:30;;;;;;;49.88;8.60;;;24.10;55.40;;;;;;5010069;28;20042;-81
2022/08/21 12:45:58;;;;;;;;;;;24.10;59.00;;;;;;5010662;28;20049;-84
2022/08/21 12:48:30;;;;;;;3.03;2.13;;;24.20;56.80;;;;;;5009308;28;19913;-81
2022/08/21 12:51:07;;;;;;;3.60;2.33;;;24.10;51.40;;;;;;5007363;28;20576;-85
2022/08/21 12:53:44;;;;;;;4.53;2.23;;;24.00;51.20;;;;;;5007635;28;20044;-85
2022/08/21 12:56:13;;;;;;;2.20;2.00;;;23.90;51.40;;;;;;5006088;28;20299;-87
2022/08/21 12:58:53;;;;;;;3.55;2.10;;;23.90;54.40;;;;;;5006617;28;20030;-86
2022/08/21 13:01:30;;;;;;;3.28;2.03;;;24.00;57.30;;;;;;5006834;28;20053;-82
2022/08/21 13:04:00;;;;;;;4.43;2.40;;;24.00;58.00;;;;;;5012277;28;20057;-86
2022/08/21 13:06:31;;;;;;;2.80;2.30;;;24.20;53.80;;;;;;5014568;28;20064;-85
2022/08/21 13:09:05;;;;;;;2.83;2.20;;;24.20;52.70;;;;;;5015141;28;20046;-83